createdAt,value
2019-02-26T00:02:26.024Z,133.87
2019-02-26T00:04:54.118Z,126.57
2019-02-26T00:07:25.191Z,122.97
2019-02-26T00:09:53.588Z,128.67
2019-02-26T00:12:23.863Z,129.93
2019-02-26T00:14:54.261Z,124.73
2019-02-26T00:17:21.750Z,124.70
2019-02-26T00:19:49.368Z,142.43
2019-02-26T00:22:18.273Z,131.57
2019-02-26T00:24:46.608Z,118.80
2019-02-26T00:27:14.382Z,132.43
2019-02-26T00:29:41.897Z,127.53
2019-02-26T00:32:11.312Z,123.80
2019-02-26T00:34:39.429Z,112.93
2019-02-26T00:37:08.508Z,118.43
2019-02-26T00:39:36.063Z,127.63
2019-02-26T00:42:05.218Z,127.67
2019-02-26T00:44:35.288Z,116.80
2019-02-26T00:47:04.428Z,141.10
2019-02-26T00:49:31.526Z,127.53
2019-02-26T00:51:59.005Z,120.23
2019-02-26T00:54:27.225Z,123.70
2019-02-26T00:56:59.092Z,122.10
2019-02-26T00:59:25.125Z,119.43
2019-02-26T01:01:54.682Z,119.87
2019-02-26T01:04:21.932Z,126.87
2019-02-26T01:06:49.887Z,116.67
2019-02-26T01:09:17.508Z,113.90
2019-02-26T01:11:45.757Z,104.23
2019-02-26T01:14:15.835Z,113.67
2019-02-26T01:16:44.288Z,110.73
2019-02-26T01:19:15.189Z,104.43
2019-02-26T01:21:42.301Z,97.20
2019-02-26T01:24:09.833Z,105.17
2019-02-26T01:26:37.327Z,104.93
2019-02-26T01:29:04.789Z,110.87
2019-02-26T01:31:33.962Z,112.80
2019-02-26T01:34:01.561Z,98.27
2019-02-26T01:36:29.115Z,97.37
2019-02-26T01:38:56.597Z,91.67
2019-02-26T01:41:25.005Z,93.27
2019-02-26T01:43:53.409Z,94.60
2019-02-26T01:46:20.917Z,98.27
2019-02-26T01:48:48.385Z,91.83
2019-02-26T01:51:17.172Z,83.93
2019-02-26T01:53:46.834Z,84.57
2019-02-26T01:56:14.875Z,90.67
2019-02-26T01:58:42.413Z,88.47
2019-02-26T02:01:12.042Z,86.20
2019-02-26T02:03:39.543Z,91.27
2019-02-26T02:06:09.005Z,87.03
2019-02-26T02:08:39.305Z,80.90
2019-02-26T02:11:07.413Z,76.73
2019-02-26T02:13:35.869Z,87.67
2019-02-26T02:16:04.902Z,82.27
2019-02-26T02:18:33.617Z,84.87
2019-02-26T02:21:01.117Z,81.10
2019-02-26T02:23:30.314Z,76.37
2019-02-26T02:26:02.172Z,78.27
2019-02-26T02:28:28.579Z,85.97
2019-02-26T02:30:56.563Z,85.27
2019-02-26T02:33:26.748Z,67.60
2019-02-26T02:35:53.753Z,71.57
2019-02-26T02:38:21.240Z,74.73
2019-02-26T02:40:51.200Z,68.80
2019-02-26T02:43:20.712Z,59.07
2019-02-26T02:45:48.106Z,61.23
2019-02-26T02:48:16.717Z,65.47
2019-02-26T02:50:44.217Z,53.47
2019-02-26T02:53:11.722Z,61.57
2019-02-26T02:55:40.261Z,53.73
2019-02-26T02:58:08.566Z,55.13
2019-02-26T03:00:36.059Z,50.43
2019-02-26T03:03:03.535Z,47.93
2019-02-26T03:05:33.673Z,55.23
2019-02-26T03:08:00.365Z,49.40
2019-02-26T03:10:30.790Z,52.83
2019-02-26T03:13:00.090Z,45.37
2019-02-26T03:15:27.399Z,62.90
2019-02-26T03:17:55.771Z,54.70
2019-02-26T03:20:24.734Z,53.27
2019-02-26T03:22:52.590Z,63.80
2019-02-26T03:25:23.037Z,52.73
2019-02-26T03:27:49.367Z,50.67
2019-02-26T03:30:26.447Z,55.43
2019-02-26T03:32:50.572Z,54.00
2019-02-26T03:35:18.923Z,43.33
2019-02-26T03:37:45.494Z,51.57
2019-02-26T03:40:13.111Z,50.47
2019-02-26T03:42:41.619Z,44.50
2019-02-26T03:45:11.384Z,46.67
2019-02-26T03:47:40.649Z,51.50
2019-02-26T03:50:10.213Z,54.43
2019-02-26T03:52:37.714Z,45.43
2019-02-26T03:55:08.194Z,48.63
2019-02-26T03:57:35.077Z,60.67
2019-02-26T04:00:05.716Z,54.10
2019-02-26T04:02:32.311Z,59.57
2019-02-26T04:05:00.771Z,51.37
2019-02-26T04:07:30.359Z,53.67
2019-02-26T04:09:58.609Z,52.10
2019-02-26T04:12:26.152Z,52.73
2019-02-26T04:14:53.663Z,48.27
2019-02-26T04:17:25.432Z,51.20
2019-02-26T04:19:50.482Z,50.37
2019-02-26T04:22:26.434Z,52.10
2019-02-26T04:25:00.703Z,50.07
2019-02-26T04:27:45.986Z,58.63
2019-02-26T04:31:04.233Z,46.03
2019-02-26T04:34:09.497Z,55.93
2019-02-26T04:36:49.589Z,51.80
2019-02-26T04:39:29.745Z,49.33
2019-02-26T04:42:25.857Z,52.93
2019-02-26T04:46:07.878Z,58.27
2019-02-26T04:48:35.983Z,50.13
2019-02-26T04:51:03.460Z,46.73
2019-02-26T04:53:31.823Z,61.60
2019-02-26T04:56:02.805Z,55.07
2019-02-26T04:58:29.578Z,49.07
2019-02-26T05:00:57.082Z,61.93
2019-02-26T05:03:24.627Z,70.53
2019-02-26T05:05:56.158Z,79.80
2019-02-26T05:08:21.526Z,67.53
2019-02-26T05:10:51.722Z,51.03
2019-02-26T05:13:18.313Z,50.23
2019-02-26T05:15:45.876Z,49.10
2019-02-26T05:18:13.465Z,45.53
2019-02-26T05:20:42.759Z,58.53
2019-02-26T05:23:10.334Z,52.83
2019-02-26T05:25:39.763Z,53.33
2019-02-26T05:28:09.491Z,55.67
2019-02-26T05:30:37.805Z,48.67
2019-02-26T05:33:05.711Z,48.00
2019-02-26T05:35:33.208Z,54.00
2019-02-26T05:38:03.388Z,46.73
2019-02-26T05:40:30.013Z,51.13
2019-02-26T05:42:59.308Z,54.83
2019-02-26T05:45:29.319Z,59.10
2019-02-26T05:47:58.786Z,47.13
2019-02-26T05:50:25.637Z,51.83
2019-02-26T05:52:57.550Z,51.53
2019-02-26T05:55:23.691Z,46.20
2019-02-26T05:57:51.815Z,52.37
2019-02-26T06:00:22.639Z,52.83
2019-02-26T06:02:51.026Z,51.60
2019-02-26T06:05:20.378Z,49.23
2019-02-26T06:07:47.241Z,52.00
2019-02-26T06:10:14.772Z,47.43
2019-02-26T06:12:44.648Z,53.33
2019-02-26T06:15:11.703Z,46.43
2019-02-26T06:17:43.068Z,54.77
2019-02-26T06:20:11.951Z,46.93
2019-02-26T06:22:39.438Z,50.33
2019-02-26T06:25:09.595Z,49.53
2019-02-26T06:27:36.305Z,40.43
2019-02-26T06:30:07.365Z,43.50
2019-02-26T06:32:36.704Z,40.10
2019-02-26T06:35:06.159Z,41.17
2019-02-26T06:37:33.708Z,45.90
2019-02-26T06:40:03.307Z,39.87
2019-02-26T06:42:33.337Z,47.80
2019-02-26T06:45:00.948Z,37.83
2019-02-26T06:47:30.710Z,41.57
2019-02-26T06:49:57.903Z,49.70
2019-02-26T06:52:25.408Z,35.97
2019-02-26T06:54:57.255Z,39.27
2019-02-26T06:57:22.409Z,42.07
2019-02-26T06:59:51.058Z,37.20
2019-02-26T07:02:19.202Z,39.40
2019-02-26T07:04:46.829Z,32.10
2019-02-26T07:07:14.580Z,39.40
2019-02-26T07:09:43.833Z,35.07
2019-02-26T07:12:11.468Z,36.37
2019-02-26T07:14:38.972Z,35.73
2019-02-26T07:17:06.511Z,32.20
2019-02-26T07:19:35.825Z,39.03
2019-02-26T07:22:05.305Z,33.03
2019-02-26T07:24:32.644Z,37.30
2019-02-26T07:27:01.981Z,35.60
2019-02-26T07:29:32.860Z,32.13
2019-02-26T07:31:58.964Z,31.20
2019-02-26T07:34:27.376Z,28.57
2019-02-26T07:36:55.040Z,38.17
2019-02-26T07:39:22.829Z,31.93
2019-02-26T07:41:51.764Z,31.93
2019-02-26T07:44:21.353Z,30.40
2019-02-26T07:46:48.966Z,27.93
2019-02-26T07:49:16.561Z,31.63
2019-02-26T07:51:44.053Z,21.17
2019-02-26T07:54:11.538Z,22.40
2019-02-26T07:56:39.065Z,21.50
2019-02-26T07:59:09.420Z,24.50
2019-02-26T08:01:37.577Z,35.40
2019-02-26T08:04:06.211Z,19.23
2019-02-26T08:06:36.149Z,22.87
2019-02-26T08:09:07.095Z,24.40
2019-02-26T08:11:36.836Z,26.43
2019-02-26T08:14:05.231Z,25.93
2019-02-26T08:16:32.712Z,22.40
2019-02-26T08:19:01.439Z,23.50
2019-02-26T08:21:29.719Z,26.00
2019-02-26T08:23:57.312Z,21.10
2019-02-26T08:26:26.632Z,16.93
2019-02-26T08:28:54.133Z,21.27
2019-02-26T08:31:23.314Z,16.27
2019-02-26T08:33:51.808Z,17.53
2019-02-26T08:36:19.404Z,17.97
2019-02-26T08:38:46.917Z,12.00
2019-02-26T08:41:14.443Z,19.80
2019-02-26T08:43:44.121Z,21.77
2019-02-26T08:46:12.193Z,15.83
2019-02-26T08:48:41.302Z,20.73
2019-02-26T08:51:13.676Z,18.80
2019-02-26T08:53:39.164Z,20.03
2019-02-26T08:56:08.369Z,22.43
2019-02-26T08:58:35.958Z,13.23
2019-02-26T09:01:03.431Z,17.37
2019-02-26T09:03:40.112Z,12.50
2019-02-26T09:06:12.442Z,24.83
2019-02-26T09:08:30.770Z,15.93
2019-02-26T09:11:00.845Z,24.17
2019-02-26T09:13:30.792Z,15.43
2019-02-26T09:16:00.498Z,18.80
2019-02-26T09:18:28.314Z,19.43
2019-02-26T09:20:56.903Z,18.97
2019-02-26T09:23:25.831Z,12.03
2019-02-26T09:25:54.876Z,14.57
2019-02-26T09:28:24.855Z,18.50
2019-02-26T09:30:53.738Z,16.83
2019-02-26T09:33:25.037Z,17.27
2019-02-26T09:35:52.134Z,16.07
2019-02-26T09:38:23.061Z,13.17
2019-02-26T09:40:50.556Z,12.83
2019-02-26T09:43:19.662Z,10.23
2019-02-26T09:45:48.784Z,14.33
2019-02-26T09:48:19.320Z,18.00
2019-02-26T09:50:48.610Z,17.90
2019-02-26T09:53:16.206Z,18.83
2019-02-26T09:55:43.694Z,15.73
2019-02-26T09:58:11.190Z,13.97
2019-02-26T10:00:40.385Z,17.97
2019-02-26T10:03:10.216Z,10.63
2019-02-26T10:05:37.252Z,9.50
2019-02-26T10:08:05.336Z,13.07
2019-02-26T10:10:33.847Z,18.83
2019-02-26T10:13:04.699Z,14.80
2019-02-26T10:15:32.341Z,9.67
2019-02-26T10:18:01.936Z,14.30
2019-02-26T10:20:31.831Z,17.90
2019-02-26T10:23:01.203Z,17.00
2019-02-26T10:25:31.944Z,10.90
2019-02-26T10:28:03.030Z,11.57
2019-02-26T10:30:30.372Z,10.67
2019-02-26T10:32:56.790Z,9.80
2019-02-26T10:35:32.411Z,33.90
2019-02-26T10:37:54.240Z,17.27
2019-02-26T10:40:21.900Z,13.10
2019-02-26T10:42:49.462Z,11.20
2019-02-26T10:45:18.032Z,18.87
2019-02-26T10:47:45.523Z,11.57
2019-02-26T10:50:16.227Z,11.77
2019-02-26T10:52:44.268Z,20.17
2019-02-26T10:55:14.975Z,12.83
2019-02-26T10:57:41.427Z,10.20
2019-02-26T11:00:17.558Z,19.37
2019-02-26T11:02:46.160Z,10.43
2019-02-26T11:05:16.784Z,14.30
2019-02-26T11:07:43.736Z,16.63
2019-02-26T11:10:11.971Z,11.40
2019-02-26T11:12:42.409Z,17.33
2019-02-26T11:15:10.726Z,8.40
2019-02-26T11:17:38.209Z,13.53
2019-02-26T11:20:07.740Z,14.13
2019-02-26T11:22:35.406Z,17.07
2019-02-26T11:25:03.183Z,32.13
2019-02-26T11:27:30.903Z,16.57
2019-02-26T11:29:59.536Z,16.87
2019-02-26T11:32:29.760Z,21.03
2019-02-26T11:34:57.603Z,16.70
2019-02-26T11:37:27.254Z,12.77
2019-02-26T11:39:57.577Z,11.10
2019-02-26T11:42:26.190Z,13.47
2019-02-26T11:44:54.218Z,12.30
2019-02-26T11:47:21.754Z,11.90
2019-02-26T11:49:49.248Z,15.00
2019-02-26T11:52:19.615Z,8.97
2019-02-26T11:54:46.033Z,12.70
2019-02-26T11:57:15.249Z,19.40
2019-02-26T11:59:42.918Z,14.10
2019-02-26T12:02:10.388Z,23.67
2019-02-26T12:04:37.958Z,19.13
2019-02-26T12:07:07.405Z,20.57
2019-02-26T12:09:35.714Z,12.13
2019-02-26T12:12:06.223Z,17.00
2019-02-26T12:14:34.695Z,12.70
2019-02-26T12:17:02.688Z,15.87
2019-02-26T12:19:31.124Z,13.67
2019-02-26T12:22:01.297Z,10.97
2019-02-26T12:24:31.367Z,11.43
2019-02-26T12:26:59.294Z,9.43
2019-02-26T12:29:28.363Z,13.73
2019-02-26T12:31:58.123Z,21.23
2019-02-26T12:34:25.328Z,14.87
2019-02-26T12:36:53.738Z,9.40
2019-02-26T12:39:24.825Z,8.40
2019-02-26T12:41:51.420Z,11.33
2019-02-26T12:44:18.894Z,14.47
2019-02-26T12:46:47.828Z,24.10
2019-02-26T12:49:18.019Z,17.63
2019-02-26T12:51:45.004Z,10.47
2019-02-26T12:54:13.786Z,10.20
2019-02-26T12:56:41.780Z,12.50
2019-02-26T12:59:09.255Z,9.53
2019-02-26T13:01:39.529Z,14.87
2019-02-26T13:04:06.825Z,8.67
2019-02-26T13:06:38.288Z,18.73
2019-02-26T13:09:05.418Z,18.87
2019-02-26T13:11:32.994Z,9.17
2019-02-26T13:14:00.520Z,14.10
2019-02-26T13:16:28.030Z,9.60
2019-02-26T13:19:00.092Z,9.97
2019-02-26T13:21:24.860Z,25.67
2019-02-26T13:23:52.386Z,13.80
2019-02-26T13:26:22.518Z,10.43
2019-02-26T13:28:52.803Z,8.53
2019-02-26T13:33:48.122Z,17.80
2019-02-26T13:36:16.367Z,18.30
2019-02-26T13:38:45.924Z,7.07
2019-02-26T13:41:29.028Z,18.50
2019-02-26T13:43:42.634Z,6.77
2019-02-26T13:46:10.147Z,14.70
2019-02-26T13:48:38.582Z,13.93
2019-02-26T13:51:06.157Z,16.47
2019-02-26T13:53:33.812Z,13.70
2019-02-26T13:56:01.358Z,14.83
2019-02-26T13:58:28.864Z,18.60
2019-02-26T14:00:56.711Z,16.13
2019-02-26T14:03:24.375Z,20.57
2019-02-26T14:05:51.918Z,16.97
2019-02-26T14:08:19.431Z,24.27
2019-02-26T14:10:47.156Z,12.83
2019-02-26T14:13:14.668Z,14.10
2019-02-26T14:15:42.252Z,12.33
2019-02-26T14:18:09.759Z,19.47
2019-02-26T14:20:37.306Z,17.13
2019-02-26T14:23:07.059Z,7.93
2019-02-26T14:25:34.940Z,12.10
2019-02-26T14:28:02.755Z,12.87
2019-02-26T14:30:30.610Z,14.07
2019-02-26T14:32:58.136Z,13.53
2019-02-26T14:35:25.654Z,10.80
2019-02-26T14:37:53.189Z,7.53
2019-02-26T14:40:21.318Z,7.70
2019-02-26T14:42:49.048Z,6.77
2019-02-26T14:45:16.561Z,11.27
2019-02-26T14:47:44.075Z,15.03
2019-02-26T14:50:15.681Z,13.20
2019-02-26T14:52:43.420Z,16.83
2019-02-26T14:55:11.513Z,10.90
2019-02-26T14:57:39.029Z,14.30
2019-02-26T15:00:12.897Z,14.13
2019-02-26T15:02:40.441Z,12.77
2019-02-26T15:05:08.126Z,16.53
2019-02-26T15:07:35.670Z,13.40
2019-02-26T15:10:03.808Z,24.27
2019-02-26T15:12:31.484Z,15.47
2019-02-26T15:14:59.011Z,16.77
2019-02-26T15:17:26.704Z,14.93
2019-02-26T15:19:54.223Z,14.83
2019-02-26T15:22:21.730Z,14.70
2019-02-26T15:24:49.290Z,11.00
2019-02-26T15:27:16.795Z,15.73
2019-02-26T15:29:44.709Z,19.30
2019-02-26T15:32:12.168Z,22.23
2019-02-26T15:34:39.724Z,14.80
2019-02-26T15:37:07.308Z,12.07
2019-02-26T15:39:35.030Z,19.60
2019-02-26T15:42:02.572Z,13.13
2019-02-26T15:44:30.285Z,17.40
2019-02-26T15:46:59.593Z,18.80
2019-02-26T15:49:28.908Z,15.17
2019-02-26T15:51:56.444Z,19.67
2019-02-26T15:54:25.321Z,27.80
2019-02-26T15:56:54.981Z,14.13
2019-02-26T15:59:22.602Z,21.93
2019-02-26T16:01:50.150Z,18.67
2019-02-26T16:04:17.722Z,35.50
2019-02-26T16:06:45.314Z,23.60
2019-02-26T16:09:14.838Z,20.30
2019-02-26T16:11:42.496Z,23.27
2019-02-26T16:14:10.068Z,22.80
2019-02-26T16:16:37.650Z,29.93
2019-02-26T16:19:05.214Z,59.40
2019-02-26T16:21:32.773Z,28.20
2019-02-26T16:24:00.380Z,31.23
2019-02-26T16:26:27.935Z,28.77
2019-02-26T16:28:56.475Z,38.37
2019-02-26T16:31:24.104Z,34.87
2019-02-26T16:33:51.654Z,29.73
2019-02-26T16:36:19.156Z,36.57
2019-02-26T16:38:50.606Z,28.00
2019-02-26T16:41:16.038Z,28.23
2019-02-26T16:43:43.590Z,29.63
2019-02-26T16:46:12.121Z,64.23
2019-02-26T16:48:39.624Z,18.80
2019-02-26T16:51:07.206Z,34.07
2019-02-26T16:53:34.826Z,22.27
2019-02-26T16:56:02.240Z,26.23
2019-02-26T16:58:29.754Z,25.47
2019-02-26T17:00:57.270Z,40.40
2019-02-26T17:03:25.178Z,42.80
2019-02-26T17:05:53.218Z,80.30
2019-02-26T17:08:20.817Z,64.67
2019-02-26T17:10:48.381Z,43.80
2019-02-26T17:13:15.886Z,41.83
2019-02-26T17:15:43.506Z,76.20
2019-02-26T17:18:11.059Z,49.97
2019-02-26T17:20:38.562Z,44.00
2019-02-26T17:23:06.108Z,62.07
2019-02-26T17:25:33.667Z,46.37
2019-02-26T17:28:01.566Z,42.80
2019-02-26T17:30:29.078Z,20.63
2019-02-26T17:32:56.629Z,22.07
2019-02-26T17:35:24.170Z,34.97
2019-02-26T17:37:52.412Z,30.57
2019-02-26T17:40:20.083Z,34.03
2019-02-26T17:42:48.844Z,32.50
2019-02-26T17:45:17.602Z,24.80
2019-02-26T17:47:45.131Z,36.97
2019-02-26T17:50:15.461Z,24.57
2019-02-26T17:52:43.054Z,27.07
2019-02-26T17:55:10.586Z,27.60
2019-02-26T17:57:38.378Z,41.47
2019-02-26T18:00:08.318Z,25.00
2019-02-26T18:02:35.834Z,27.27
2019-02-26T18:05:05.918Z,26.37
2019-02-26T18:07:33.414Z,26.97
2019-02-26T18:10:00.932Z,24.13
2019-02-26T18:12:28.523Z,22.43
2019-02-26T18:14:56.204Z,27.80
2019-02-26T18:17:23.722Z,27.60
2019-02-26T18:19:51.254Z,29.37
2019-02-26T18:22:21.382Z,36.07
2019-02-26T18:24:48.111Z,24.93
2019-02-26T18:27:15.631Z,36.83
2019-02-26T18:29:43.162Z,31.27
2019-02-26T18:32:11.255Z,30.47
2019-02-26T18:34:39.108Z,31.40
2019-02-26T18:37:06.655Z,31.70
2019-02-26T18:39:34.228Z,28.97
2019-02-26T18:42:01.713Z,53.00
2019-02-26T18:44:29.243Z,36.37
2019-02-26T18:46:58.141Z,40.40
2019-02-26T18:49:25.663Z,34.00
2019-02-26T18:51:53.233Z,46.40
2019-02-26T18:54:21.111Z,35.27
2019-02-26T18:56:48.713Z,39.40
2019-02-26T18:59:16.299Z,41.13
2019-02-26T19:01:43.903Z,36.43
2019-02-26T19:04:11.403Z,45.07
2019-02-26T19:06:38.942Z,41.83
2019-02-26T19:09:11.501Z,80.87
2019-02-26T19:11:36.816Z,55.60
2019-02-26T19:14:08.904Z,55.13
2019-02-26T19:16:33.630Z,57.20
2019-02-26T19:19:01.170Z,59.80
2019-02-26T19:21:28.687Z,57.43
2019-02-26T19:23:56.235Z,47.83
2019-02-26T19:26:23.781Z,44.70
2019-02-26T19:28:51.305Z,37.07
2019-02-26T19:31:18.888Z,50.60
2019-02-26T19:33:46.378Z,46.40
2019-02-26T19:36:13.974Z,55.27
2019-02-26T19:38:41.765Z,53.73
2019-02-26T19:41:12.638Z,46.20
2019-02-26T19:43:40.557Z,48.30
2019-02-26T19:46:08.544Z,36.07
2019-02-26T19:48:36.074Z,45.27
2019-02-26T19:51:03.605Z,44.73
2019-02-26T19:53:34.460Z,40.00
2019-02-26T19:56:00.453Z,51.57
2019-02-26T19:58:27.990Z,42.83
2019-02-26T20:00:55.561Z,40.73
2019-02-26T20:03:23.053Z,47.43
2019-02-26T20:05:50.578Z,31.67
2019-02-26T20:08:18.166Z,33.60
2019-02-26T20:10:48.285Z,34.97
2019-02-26T20:13:15.025Z,33.27
2019-02-26T20:15:42.638Z,52.33
2019-02-26T20:18:20.114Z,44.63
2019-02-26T20:20:41.071Z,39.43
2019-02-26T20:23:08.821Z,49.37
2019-02-26T20:25:36.382Z,43.30
2019-02-26T20:28:05.522Z,43.37
2019-02-26T20:30:33.447Z,30.53
2019-02-26T20:33:01.591Z,46.23
2019-02-26T20:35:30.314Z,48.93
2019-02-26T20:37:58.856Z,36.20
2019-02-26T20:40:26.899Z,42.07
2019-02-26T20:42:54.425Z,35.53
2019-02-26T20:45:22.644Z,37.57
2019-02-26T20:47:52.851Z,37.47
2019-02-26T20:50:45.071Z,45.00
2019-02-26T20:53:12.625Z,41.30
2019-02-26T20:55:40.214Z,42.47
2019-02-26T20:58:11.670Z,41.77
2019-02-26T21:00:42.401Z,39.33
2019-02-26T21:03:08.235Z,31.70
2019-02-26T21:05:35.754Z,43.10
2019-02-26T21:08:03.280Z,47.23
2019-02-26T21:10:30.809Z,36.10
2019-02-26T21:13:01.658Z,46.50
2019-02-26T21:15:27.663Z,41.63
2019-02-26T21:17:58.047Z,42.13
2019-02-26T21:20:25.282Z,28.20
2019-02-26T21:22:54.930Z,33.70
2019-02-26T21:25:22.784Z,35.17
2019-02-26T21:27:50.317Z,32.40
2019-02-26T21:30:17.877Z,38.43
2019-02-26T21:32:45.441Z,38.27
2019-02-26T21:35:12.997Z,44.90
2019-02-26T21:37:40.799Z,43.20
2019-02-26T21:40:08.729Z,40.80
2019-02-26T21:42:36.249Z,33.97
2019-02-26T21:45:04.415Z,40.77
2019-02-26T21:47:32.029Z,45.53
2019-02-26T21:49:59.547Z,40.97
2019-02-26T21:52:27.045Z,49.90
2019-02-26T21:54:57.507Z,42.57
2019-02-26T21:57:23.985Z,45.73
2019-02-26T21:59:51.529Z,42.10
2019-02-26T22:02:19.464Z,54.33
2019-02-26T22:04:47.021Z,35.83
2019-02-26T22:07:16.790Z,36.37
2019-02-26T22:09:43.867Z,38.60
2019-02-26T22:12:11.369Z,36.87
2019-02-26T22:14:38.885Z,37.67
2019-02-26T22:17:06.446Z,35.53
2019-02-26T22:19:33.945Z,32.97
2019-02-26T22:22:01.508Z,28.20
2019-02-26T22:24:29.011Z,31.93
2019-02-26T22:26:59.448Z,31.27
2019-02-26T22:29:25.924Z,27.90
2019-02-26T22:31:53.485Z,33.27
2019-02-26T22:34:21.081Z,33.10
2019-02-26T22:36:48.604Z,29.67
2019-02-26T22:39:16.305Z,28.77
2019-02-26T22:41:43.818Z,28.73
2019-02-26T22:44:11.313Z,28.00
2019-02-26T22:46:38.847Z,23.80
2019-02-26T22:49:06.403Z,24.17
2019-02-26T22:51:33.929Z,31.07
2019-02-26T22:54:01.437Z,26.40
2019-02-26T22:56:29.005Z,24.47
2019-02-26T22:58:56.543Z,20.13
2019-02-26T23:01:30.838Z,29.53
2019-02-26T23:03:58.383Z,20.00
2019-02-26T23:06:25.892Z,29.10
2019-02-26T23:08:53.399Z,20.83
2019-02-26T23:11:21.051Z,17.90
2019-02-26T23:13:48.815Z,20.67
2019-02-26T23:16:18.584Z,15.17
2019-02-26T23:18:45.773Z,20.77
2019-02-26T23:21:15.636Z,22.33
2019-02-26T23:23:43.024Z,18.93
2019-02-26T23:26:10.562Z,23.13
2019-02-26T23:28:38.271Z,19.37
2019-02-26T23:31:06.653Z,16.20
2019-02-26T23:33:34.143Z,20.87
2019-02-26T23:36:01.645Z,14.53
2019-02-26T23:38:29.156Z,23.47
2019-02-26T23:40:58.152Z,24.70
2019-02-26T23:43:26.229Z,21.77
2019-02-26T23:45:56.785Z,21.43
2019-02-26T23:48:23.102Z,20.63
2019-02-26T23:50:50.616Z,18.30
2019-02-26T23:53:18.249Z,22.90
2019-02-26T23:55:47.241Z,22.33
2019-02-26T23:58:16.907Z,20.63
